Niagara Falls, Canada
Current Conditions -  °F | °C
As of 10:53 PM on Sunday 25 Jan 2015 (Local Time) from KIAG Reporting Station
Broken Clouds Broken Clouds  
Wind Chill:   Ceiling: 17000
Heat Index: 13°   Visibility: 10mi
Dew Point:   Wind: 5mph
Humidity: 74%   Direction: 70°ENE
Pressure: 30.02"   Gusts: NA
Location:  43.08°N, 79.08°W
Report Text: KIAG 260153Z 07004KT 10SM FEW030 BKN170 BKN290 M11/M14 A3002 RMK AO2 SLP189 T11061144 $
Loading
Personal Weather Stations






























Interactive Weather Map New forecast layout! Learn more

10-Day Weather Forecast

Advertisements
Track Severe Weather on mobile